Time;durP1;ratioP1;P1;durP2;ratioP2;P2;SDS_P1;SDS_P2;PMS_P1;PMS_P2;Temp;Humidity;BMP_temperature;BMP_pressure;BME280_temperature;BME280_humidity;BME280_pressure;Samples;Min_cycle;Max_cycle;Signal;HPM_P1;HPM_P2
2022/09/19 00:01:24;;;;;;;0.50;0.50;;;;;;;;;;5033785;28;20030;-80
2022/09/19 00:03:56;;;;;;;1.07;0.50;;;;;;;;;;5032615;28;20032;-81
2022/09/19 00:06:23;;;;;;;0.80;0.33;;;;;;;;;;5015187;28;20025;-81
2022/09/19 00:08:49;;;;;;;0.63;0.50;;;;;;;;;;5032478;28;20022;-83
2022/09/19 00:11:17;;;;;;;4.80;0.70;;;;;;;;;;5014136;28;20334;-83
2022/09/19 00:13:47;;;;;;;2.60;0.37;;;;;;;;;;5032251;28;20025;-82
2022/09/19 00:16:21;;;;;;;2.33;0.50;;;;;;;;;;5032669;28;20509;-81
2022/09/19 00:18:48;;;;;;;1.87;0.30;;;;;;;;;;5032946;28;20029;-82
2022/09/19 00:21:43;;;;;;;1.60;0.43;;;;;;;;;;5014611;28;20033;-82
2022/09/19 00:27:00;;;;;;;4.53;0.60;;;;;;;;;;5013741;28;20084;-81
2022/09/19 00:29:26;;;;;;;2.80;0.47;;;;;;;;;;5010892;28;20117;-82
2022/09/19 00:31:52;;;;;;;1.13;0.43;;;;;;;;;;5012049;28;20029;-79
2022/09/19 00:34:18;;;;;;;1.20;0.50;;;;;;;;;;5011666;28;20046;-81
2022/09/19 00:36:44;;;;;;;1.20;0.40;;;;;;;;;;5012727;28;20026;-80
2022/09/19 00:39:14;;;;;;;0.53;0.40;;;;;;;;;;4993949;28;20025;-80
2022/09/19 00:41:40;;;;;;;0.40;0.33;;;;;;;;;;5010673;28;20041;-82
2022/09/19 00:44:26;;;;;;;2.40;0.50;;;;;;;;;;5010162;28;20034;-82
2022/09/19 00:47:05;;;;;;;1.17;0.43;;;;;;;;;;5010202;28;20054;-81
2022/09/19 00:49:37;;;;;;;3.20;0.60;;;;;;;;;;5011675;28;20034;-82
2022/09/19 00:52:07;;;;;;;3.30;0.83;;;;;;;;;;5011249;28;20125;-81
2022/09/19 00:54:44;;;;;;;3.47;0.50;;;;;;;;;;4994468;28;20034;-82
2022/09/19 00:57:12;;;;;;;0.30;0.30;;;;;;;;;;5011527;28;20034;-78
2022/09/19 00:59:41;;;;;;;0.67;0.40;;;;;;;;;;4994131;28;20049;-82
2022/09/19 01:02:08;;;;;;;1.43;0.40;;;;;;;;;;4992853;28;20116;-78
2022/09/19 01:04:38;;;;;;;1.23;0.60;;;;;;;;;;5010464;28;20030;-79
2022/09/19 01:07:24;;;;;;;0.80;0.40;;;;;;;;;;5010397;28;20029;-78
2022/09/19 01:10:00;;;;;;;1.73;0.60;;;;;;;;;;5010725;28;20022;-79
2022/09/19 01:12:55;;;;;;;0.70;0.47;;;;;;;;;;5009075;28;20120;-79
2022/09/19 01:15:50;;;;;;;4.33;0.67;;;;;;;;;;5010451;28;20018;-78
2022/09/19 01:18:18;;;;;;;1.90;0.70;;;;;;;;;;5007665;28;20037;-78
2022/09/19 01:21:37;;;;;;;3.50;0.67;;;;;;;;;;5009443;28;20042;-76
2022/09/19 01:24:30;;;;;;;0.80;0.30;;;;;;;;;;5011361;28;20045;-79
2022/09/19 01:27:05;;;;;;;1.33;0.30;;;;;;;;;;5029350;28;20033;-79
2022/09/19 01:29:53;;;;;;;0.77;0.40;;;;;;;;;;5030039;28;20052;-77
2022/09/19 01:32:23;;;;;;;1.17;0.50;;;;;;;;;;5012312;28;20033;-78
2022/09/19 01:34:57;;;;;;;6.77;0.50;;;;;;;;;;5029966;28;20045;-77
2022/09/19 01:37:32;;;;;;;0.30;0.30;;;;;;;;;;5013106;28;20642;-79
2022/09/19 01:40:01;;;;;;;4.27;0.77;;;;;;;;;;5011960;28;20021;-80
2022/09/19 01:42:27;;;;;;;1.57;0.27;;;;;;;;;;5012274;28;20037;-78
2022/09/19 01:44:53;;;;;;;1.03;0.23;;;;;;;;;;5014801;28;20025;-78
2022/09/19 01:47:38;;;;;;;1.53;0.40;;;;;;;;;;5030091;28;20048;-79
2022/09/19 01:50:19;;;;;;;2.00;0.40;;;;;;;;;;5028096;28;20449;-79
2022/09/19 01:53:09;;;;;;;1.87;0.40;;;;;;;;;;5011915;28;20072;-78
2022/09/19 01:55:41;;;;;;;0.30;0.30;;;;;;;;;;5014056;28;20060;-77
2022/09/19 01:58:20;;;;;;;0.50;0.30;;;;;;;;;;5032997;28;20034;-79
2022/09/19 02:01:01;;;;;;;0.50;0.50;;;;;;;;;;5031864;28;20061;-80
2022/09/19 02:03:48;;;;;;;0.60;0.60;;;;;;;;;;5029391;28;20029;-79
2022/09/19 02:06:43;;;;;;;2.43;0.40;;;;;;;;;;5028225;28;20147;-80
2022/09/19 02:09:26;;;;;;;2.13;0.87;;;;;;;;;;5029653;28;20025;-78
2022/09/19 02:11:53;;;;;;;1.27;0.80;;;;;;;;;;5028105;28;20022;-78
2022/09/19 02:14:22;;;;;;;2.07;0.60;;;;;;;;;;5029283;28;20025;-79
2022/09/19 02:17:00;;;;;;;3.07;0.57;;;;;;;;;;5011861;28;20044;-78
2022/09/19 02:19:38;;;;;;;0.90;0.50;;;;;;;;;;5011557;28;20584;-78
2022/09/19 02:22:30;;;;;;;2.97;0.47;;;;;;;;;;5028841;28;20034;-78
2022/09/19 02:24:59;;;;;;;2.65;0.32;;;;;;;;;;5005423;28;20034;-80
2022/09/19 02:27:34;;;;;;;1.93;0.57;;;;;;;;;;5008088;28;20040;-78
2022/09/19 02:30:05;;;;;;;2.00;0.57;;;;;;;;;;5008441;28;20220;-80
2022/09/19 02:32:31;;;;;;;0.83;0.50;;;;;;;;;;5011896;28;20154;-79
2022/09/19 02:34:59;;;;;;;0.33;0.30;;;;;;;;;;5011893;28;20046;-79
2022/09/19 02:37:33;;;;;;;4.50;0.90;;;;;;;;;;4995323;28;20639;-79
2022/09/19 02:40:20;;;;;;;1.47;0.53;;;;;;;;;;5012135;28;20029;-79
2022/09/19 02:42:57;;;;;;;0.47;0.40;;;;;;;;;;5013117;28;20100;-79
2022/09/19 02:45:29;;;;;;;1.80;0.50;;;;;;;;;;5013015;28;20477;-77
2022/09/19 02:48:04;;;;;;;;;;;;;;;;;;5012280;28;20022;-79
2022/09/19 02:50:33;;;;;;;0.40;0.40;;;;;;;;;;5012715;28;19909;-79
2022/09/19 02:53:02;;;;;;;0.30;0.30;;;;;;;;;;4995229;28;20028;-79
2022/09/19 02:55:33;;;;;;;2.37;0.77;;;;;;;;;;5012774;28;20639;-78
2022/09/19 02:58:02;;;;;;;1.13;0.43;;;;;;;;;;5011652;28;20058;-79
2022/09/19 03:00:32;;;;;;;1.03;0.50;;;;;;;;;;5012703;28;20060;-79
2022/09/19 03:04:11;;;;;;;1.57;0.50;;;;;;;;;;5011250;28;20099;-80
2022/09/19 03:05:54;;;;;;;1.03;0.50;;;;;;;;;;5012416;28;20128;-78
2022/09/19 03:08:24;;;;;;;0.73;0.40;;;;;;;;;;5011657;28;20026;-80
2022/09/19 03:10:52;;;;;;;0.97;0.50;;;;;;;;;;5011287;28;20022;-79
2022/09/19 03:13:24;;;;;;;1.23;0.50;;;;;;;;;;5011225;28;20026;-78
2022/09/19 03:16:13;;;;;;;4.28;0.52;;;;;;;;;;5012629;28;20033;-79
2022/09/19 03:18:43;;;;;;;1.67;0.50;;;;;;;;;;5012731;28;20083;-79
2022/09/19 03:21:10;;;;;;;1.90;0.40;;;;;;;;;;5010954;28;20366;-78
2022/09/19 03:23:48;;;;;;;0.57;0.37;;;;;;;;;;5012358;28;20025;-80
2022/09/19 03:26:18;;;;;;;2.43;0.60;;;;;;;;;;5012403;28;20033;-79
2022/09/19 03:28:43;;;;;;;0.50;0.43;;;;;;;;;;5010908;28;20063;-80
2022/09/19 03:31:09;;;;;;;0.43;0.40;;;;;;;;;;4994501;28;20018;-78
2022/09/19 03:33:35;;;;;;;0.20;0.20;;;;;;;;;;4994391;28;20125;-78
2022/09/19 03:36:07;;;;;;;1.07;0.87;;;;;;;;;;5012439;28;20421;-78
2022/09/19 03:38:41;;;;;;;0.68;0.50;;;;;;;;;;5015586;28;20030;-77
2022/09/19 03:41:07;;;;;;;0.63;0.30;;;;;;;;;;5015857;28;20041;-79
2022/09/19 03:43:32;;;;;;;2.70;1.07;;;;;;;;;;5017539;28;20378;-78
2022/09/19 03:45:58;;;;;;;0.87;0.40;;;;;;;;;;5014782;28;20030;-77
2022/09/19 03:48:24;;;;;;;1.03;0.50;;;;;;;;;;4997805;28;20029;-79
2022/09/19 03:50:49;;;;;;;0.40;0.30;;;;;;;;;;5013947;28;20344;-79
2022/09/19 03:53:16;;;;;;;2.03;0.47;;;;;;;;;;5014511;28;20026;-77
2022/09/19 03:55:42;;;;;;;1.90;0.63;;;;;;;;;;5011076;28;20026;-78
2022/09/19 03:58:09;;;;;;;2.37;0.43;;;;;;;;;;5012276;28;20108;-78
2022/09/19 04:00:35;;;;;;;0.70;0.40;;;;;;;;;;5011681;28;20030;-78
2022/09/19 04:03:00;;;;;;;1.70;0.57;;;;;;;;;;4995419;28;20041;-78
2022/09/19 04:05:26;;;;;;;0.37;0.33;;;;;;;;;;5011316;28;20044;-80
2022/09/19 04:07:51;;;;;;;1.43;0.70;;;;;;;;;;4997422;28;20085;-79
2022/09/19 04:10:17;;;;;;;1.30;0.20;;;;;;;;;;5013824;28;20021;-79
2022/09/19 04:12:43;;;;;;;0.57;0.40;;;;;;;;;;5010677;28;20034;-78
2022/09/19 04:15:08;;;;;;;3.03;0.33;;;;;;;;;;5011841;28;20037;-80
2022/09/19 04:17:35;;;;;;;4.17;0.60;;;;;;;;;;5011809;28;20033;-78
2022/09/19 04:20:01;;;;;;;0.83;0.53;;;;;;;;;;4994382;28;20468;-78
2022/09/19 04:22:26;;;;;;;1.07;0.57;;;;;;;;;;5011704;28;20085;-80
2022/09/19 04:24:52;;;;;;;0.70;0.40;;;;;;;;;;5011645;28;20022;-78
2022/09/19 04:27:18;;;;;;;2.43;0.50;;;;;;;;;;5012329;28;20026;-79
2022/09/19 04:29:43;;;;;;;1.10;0.47;;;;;;;;;;5010338;28;20113;-78
2022/09/19 04:32:10;;;;;;;0.50;0.50;;;;;;;;;;5009933;28;20113;-80
2022/09/19 04:34:35;;;;;;;0.57;0.50;;;;;;;;;;5009472;28;20061;-80
2022/09/19 04:37:06;;;;;;;1.00;0.50;;;;;;;;;;5011468;28;20486;-79
2022/09/19 04:39:31;;;;;;;1.90;0.50;;;;;;;;;;5011494;28;20517;-80
2022/09/19 04:41:59;;;;;;;1.63;0.27;;;;;;;;;;4993359;28;20062;-78
2022/09/19 04:44:29;;;;;;;2.53;0.77;;;;;;;;;;4977355;28;20045;-79
2022/09/19 04:46:58;;;;;;;3.97;2.33;;;;;;;;;;4994026;28;20036;-79
2022/09/19 04:49:34;;;;;;;1.73;0.40;;;;;;;;;;4992932;28;20546;-79
2022/09/19 04:52:00;;;;;;;1.57;0.50;;;;;;;;;;5011513;28;20021;-79
2022/09/19 04:54:26;;;;;;;0.70;0.40;;;;;;;;;;5008845;28;20026;-79
2022/09/19 04:56:51;;;;;;;1.70;0.50;;;;;;;;;;4993297;28;20022;-80
2022/09/19 04:59:17;;;;;;;0.30;0.30;;;;;;;;;;4993207;28;20030;-79
2022/09/19 05:01:43;;;;;;;3.80;1.05;;;;;;;;;;4993353;28;20061;-80
2022/09/19 05:04:08;;;;;;;1.53;0.67;;;;;;;;;;5010598;28;20030;-79
2022/09/19 05:06:35;;;;;;;1.23;0.50;;;;;;;;;;5010541;28;20037;-79
2022/09/19 05:09:01;;;;;;;0.63;0.60;;;;;;;;;;5010559;28;20026;-78
2022/09/19 05:11:27;;;;;;;0.52;0.40;;;;;;;;;;5009002;28;20593;-80
2022/09/19 05:13:52;;;;;;;1.63;0.50;;;;;;;;;;5018318;28;20025;-79
2022/09/19 05:16:20;;;;;;;1.77;0.60;;;;;;;;;;5021875;28;20056;-76
2022/09/19 05:18:46;;;;;;;4.93;0.53;;;;;;;;;;5008550;28;20121;-78
2022/09/19 05:21:17;;;;;;;0.80;0.60;;;;;;;;;;5022501;28;20033;-80
2022/09/19 05:23:43;;;;;;;1.07;0.80;;;;;;;;;;5031543;28;20541;-74
2022/09/19 05:26:15;;;;;;;0.77;0.40;;;;;;;;;;5026336;28;20159;-78
2022/09/19 05:28:41;;;;;;;0.35;0.35;;;;;;;;;;5023592;28;20042;-76
2022/09/19 05:31:07;;;;;;;1.27;0.50;;;;;;;;;;5023127;28;20127;-76
2022/09/19 05:33:33;;;;;;;0.45;0.38;;;;;;;;;;5025652;28;20505;-76
2022/09/19 05:36:01;;;;;;;3.17;0.60;;;;;;;;;;5022797;28;20387;-76
2022/09/19 05:38:28;;;;;;;0.97;0.60;;;;;;;;;;5017605;28;20045;-76
2022/09/19 05:40:55;;;;;;;1.17;0.73;;;;;;;;;;5020344;28;20363;-76
2022/09/19 05:43:22;;;;;;;1.90;0.70;;;;;;;;;;5005105;28;20080;-74
2022/09/19 05:45:50;;;;;;;1.55;0.57;;;;;;;;;;5011803;28;20040;-76
2022/09/19 05:48:17;;;;;;;1.00;0.73;;;;;;;;;;5018424;28;20182;-75
2022/09/19 05:50:43;;;;;;;0.73;0.55;;;;;;;;;;5022594;28;20029;-76
2022/09/19 05:55:59;;;;;;;0.75;0.65;;;;;;;;;;5019037;28;20312;-76
2022/09/19 05:58:26;;;;;;;2.38;0.60;;;;;;;;;;5000497;28;20049;-74
2022/09/19 06:00:53;;;;;;;0.85;0.40;;;;;;;;;;5013411;28;20087;-75
2022/09/19 06:03:21;;;;;;;0.82;0.50;;;;;;;;;;5013893;28;20037;-74
2022/09/19 06:05:48;;;;;;;0.70;0.70;;;;;;;;;;5000073;28;20079;-75
2022/09/19 06:08:24;;;;;;;2.67;0.80;;;;;;;;;;5023677;28;20037;-76
2022/09/19 06:10:50;;;;;;;0.50;0.50;;;;;;;;;;5012137;28;20560;-75
2022/09/19 06:13:21;;;;;;;1.10;0.70;;;;;;;;;;5021273;28;20549;-75
2022/09/19 06:15:48;;;;;;;0.60;0.40;;;;;;;;;;5026097;28;20487;-76
2022/09/19 06:18:15;;;;;;;1.17;0.43;;;;;;;;;;5010498;28;20359;-75
2022/09/19 06:20:43;;;;;;;0.77;0.50;;;;;;;;;;5010988;28;20041;-76
2022/09/19 06:23:10;;;;;;;0.50;0.50;;;;;;;;;;5020099;28;20155;-76
2022/09/19 06:25:40;;;;;;;1.65;0.40;;;;;;;;;;5020314;28;20321;-75
2022/09/19 06:28:10;;;;;;;1.05;0.80;;;;;;;;;;5020472;28;20048;-75
2022/09/19 06:30:37;;;;;;;0.70;0.60;;;;;;;;;;5014339;28;20032;-79
2022/09/19 06:33:06;;;;;;;1.73;0.70;;;;;;;;;;5020786;28;20122;-73
2022/09/19 06:35:34;;;;;;;1.90;0.68;;;;;;;;;;5020579;28;20163;-73
2022/09/19 06:38:02;;;;;;;2.35;0.60;;;;;;;;;;5020870;28;20041;-77
2022/09/19 06:40:29;;;;;;;1.60;0.75;;;;;;;;;;5012472;28;20034;-75
2022/09/19 06:43:03;;;;;;;3.55;0.80;;;;;;;;;;5009574;28;20034;-75
2022/09/19 06:45:37;;;;;;;0.90;0.70;;;;;;;;;;5020322;28;20140;-75
2022/09/19 06:48:05;;;;;;;1.40;0.60;;;;;;;;;;5005473;28;20823;-76
2022/09/19 06:50:31;;;;;;;0.70;0.70;;;;;;;;;;5014082;28;20037;-75
2022/09/19 06:52:57;;;;;;;2.28;0.70;;;;;;;;;;5020406;28;20038;-76
2022/09/19 06:55:25;;;;;;;0.63;0.60;;;;;;;;;;5019477;28;20693;-78
2022/09/19 06:58:19;;;;;;;7.53;1.13;;;;;;;;;;5020259;28;20041;-75
2022/09/19 07:00:45;;;;;;;1.25;0.80;;;;;;;;;;5011017;28;20107;-74
2022/09/19 07:03:15;;;;;;;1.92;0.90;;;;;;;;;;5020555;28;20041;-76
2022/09/19 07:05:42;;;;;;;1.10;0.80;;;;;;;;;;5013697;28;20413;-78
2022/09/19 07:08:13;;;;;;;3.00;0.98;;;;;;;;;;5004523;28;20045;-76
2022/09/19 07:10:38;;;;;;;3.22;1.42;;;;;;;;;;4998762;28;20041;-75
2022/09/19 07:13:05;;;;;;;1.13;0.75;;;;;;;;;;5009007;28;20047;-77
2022/09/19 07:15:38;;;;;;;1.35;0.90;;;;;;;;;;5014922;28;20048;-74
2022/09/19 07:18:13;;;;;;;3.38;2.13;;;;;;;;;;4996276;28;20052;-72
2022/09/19 07:20:40;;;;;;;2.25;0.95;;;;;;;;;;4987317;28;20095;-74
2022/09/19 07:23:15;;;;;;;1.77;1.10;;;;;;;;;;5012854;28;20037;-76
2022/09/19 07:25:43;;;;;;;2.15;0.80;;;;;;;;;;5013020;28;21120;-73
2022/09/19 07:28:13;;;;;;;3.60;1.08;;;;;;;;;;4997071;28;20157;-73
2022/09/19 07:30:40;;;;;;;1.80;1.33;;;;;;;;;;4990863;28;21272;-76
2022/09/19 07:33:07;;;;;;;2.45;0.80;;;;;;;;;;4994035;28;20037;-77
2022/09/19 07:35:35;;;;;;;1.20;0.82;;;;;;;;;;5016975;28;20053;-75
2022/09/19 07:38:02;;;;;;;0.90;0.90;;;;;;;;;;5017590;28;20136;-79
2022/09/19 07:40:28;;;;;;;1.10;0.90;;;;;;;;;;5006580;28;20045;-77
2022/09/19 07:43:02;;;;;;;1.70;0.90;;;;;;;;;;5019307;28;20508;-77
2022/09/19 07:45:29;;;;;;;2.22;0.47;;;;;;;;;;5023751;28;20390;-77
2022/09/19 07:47:58;;;;;;;1.02;0.63;;;;;;;;;;5025721;28;20045;-74
2022/09/19 07:50:25;;;;;;;2.60;0.73;;;;;;;;;;5015009;28;20025;-75
2022/09/19 07:53:02;;;;;;;0.82;0.77;;;;;;;;;;5022822;28;20037;-75
2022/09/19 07:55:29;;;;;;;2.47;0.88;;;;;;;;;;5024279;28;20039;-78
2022/09/19 07:57:58;;;;;;;1.63;1.15;;;;;;;;;;5022198;28;20083;-78
2022/09/19 08:00:26;;;;;;;0.50;0.50;;;;;;;;;;5004420;28;21313;-74
2022/09/19 08:03:23;;;;;;;1.60;0.98;;;;;;;;;;5001468;28;20040;-75
2022/09/19 08:05:51;;;;;;;8.50;3.40;;;;;;;;;;5006272;28;20045;-76
2022/09/19 08:08:20;;;;;;;3.10;0.90;;;;;;;;;;5008501;28;20126;-75
2022/09/19 08:10:47;;;;;;;1.38;0.80;;;;;;;;;;4986525;28;20124;-77
2022/09/19 08:13:15;;;;;;;2.83;1.08;;;;;;;;;;5021635;28;20110;-76
2022/09/19 08:15:43;;;;;;;2.45;0.93;;;;;;;;;;5018704;28;20048;-77
2022/09/19 08:18:26;;;;;;;3.42;0.82;;;;;;;;;;5022264;28;20052;-75
2022/09/19 08:20:52;;;;;;;3.25;1.10;;;;;;;;;;5009759;28;20413;-77
2022/09/19 08:23:21;;;;;;;0.88;0.88;;;;;;;;;;5020596;28;20037;-77
2022/09/19 08:25:50;;;;;;;3.65;1.27;;;;;;;;;;5018808;28;20037;-78
2022/09/19 08:28:20;;;;;;;1.40;1.02;;;;;;;;;;5022330;28;20041;-79
2022/09/19 08:30:47;;;;;;;1.17;1.08;;;;;;;;;;5002515;28;20757;-80
2022/09/19 08:33:14;;;;;;;0.90;0.90;;;;;;;;;;5021519;28;20041;-76
2022/09/19 08:35:42;;;;;;;3.92;1.10;;;;;;;;;;5020416;28;20363;-79
2022/09/19 08:38:13;;;;;;;1.75;1.27;;;;;;;;;;5021423;28;20049;-76
2022/09/19 08:40:44;;;;;;;3.53;1.42;;;;;;;;;;5016443;28;20045;-81
2022/09/19 08:43:35;;;;;;;3.13;2.20;;;;;;;;;;5018740;28;20103;-76
2022/09/19 08:46:15;;;;;;;1.98;1.30;;;;;;;;;;5016644;28;20821;-78
2022/09/19 08:48:59;;;;;;;3.78;1.52;;;;;;;;;;5017778;28;20033;-78
2022/09/19 08:51:46;;;;;;;2.40;1.73;;;;;;;;;;5002670;28;20045;-77
2022/09/19 08:54:17;;;;;;;3.30;1.60;;;;;;;;;;5017076;28;21243;-76
2022/09/19 08:56:44;;;;;;;1.42;1.30;;;;;;;;;;5018824;28;20421;-77
2022/09/19 08:59:16;;;;;;;3.30;1.85;;;;;;;;;;5019759;28;20033;-76
2022/09/19 09:01:43;;;;;;;;;;;;;;;;;;5017130;28;20033;-78
2022/09/19 09:04:38;;;;;;;3.05;1.52;;;;;;;;;;5004486;28;19916;-78
2022/09/19 09:07:45;;;;;;;2.50;1.52;;;;;;;;;;5009769;28;20029;-77
2022/09/19 09:10:37;;;;;;;2.83;1.40;;;;;;;;;;4981316;28;20053;-76
2022/09/19 09:13:21;;;;;;;1.80;1.38;;;;;;;;;;5019911;28;20560;-79
2022/09/19 09:16:33;;;;;;;2.65;1.38;;;;;;;;;;5018371;28;20060;-79
2022/09/19 09:19:10;;;;;;;5.45;1.33;;;;;;;;;;4953974;28;20072;-78
2022/09/19 09:21:45;;;;;;;0.90;0.90;;;;;;;;;;5016853;28;20037;-77
2022/09/19 09:24:20;;;;;;;2.05;1.30;;;;;;;;;;5017169;28;20041;-77
2022/09/19 09:26:52;;;;;;;2.55;1.40;;;;;;;;;;5018450;28;20042;-77
2022/09/19 09:29:28;;;;;;;2.08;1.50;;;;;;;;;;5013968;28;20060;-77
2022/09/19 09:32:22;;;;;;;2.40;1.60;;;;;;;;;;5013896;28;20110;-77
2022/09/19 09:34:58;;;;;;;2.88;1.20;;;;;;;;;;5013422;28;20073;-76
2022/09/19 09:37:34;;;;;;;2.15;1.10;;;;;;;;;;4995421;28;20045;-77
2022/09/19 09:43:10;;;;;;;3.33;1.60;;;;;;;;;;4993232;28;20703;-76
2022/09/19 09:45:50;;;;;;;1.67;1.40;;;;;;;;;;5012808;28;20034;-77
2022/09/19 09:48:26;;;;;;;1.48;1.20;;;;;;;;;;5013108;28;20539;-75
2022/09/19 09:51:19;;;;;;;2.45;1.17;;;;;;;;;;4988798;28;20044;-78
2022/09/19 09:53:50;;;;;;;;;;;;;;;;;;4996121;28;20490;-77
2022/09/19 09:56:37;;;;;;;1.77;1.38;;;;;;;;;;4992017;28;19921;-77
2022/09/19 10:05:25;;;;;;;1.95;1.50;;;;;;;;;;4998966;28;20041;-77
2022/09/19 10:07:58;;;;;;;1.23;1.13;;;;;;;;;;5000303;28;20025;-76
2022/09/19 10:10:25;;;;;;;1.60;1.40;;;;;;;;;;4988164;28;20114;-75
2022/09/19 10:12:59;;;;;;;2.83;1.70;;;;;;;;;;4995339;28;20475;-79
2022/09/19 10:15:25;;;;;;;3.35;1.77;;;;;;;;;;4998686;28;20670;-77
2022/09/19 10:18:14;;;;;;;2.30;1.77;;;;;;;;;;4992785;28;20092;-78
2022/09/19 10:20:52;;;;;;;3.35;1.83;;;;;;;;;;4988244;28;20041;-76
2022/09/19 10:23:23;;;;;;;6.30;2.65;;;;;;;;;;4994507;28;20034;-78
2022/09/19 10:26:14;;;;;;;3.63;1.55;;;;;;;;;;4999533;28;20047;-77
2022/09/19 10:28:49;;;;;;;1.75;1.45;;;;;;;;;;5014974;28;20072;-81
2022/09/19 10:31:34;;;;;;;5.00;1.80;;;;;;;;;;4996155;28;20133;-78
2022/09/19 10:34:04;;;;;;;11.00;5.70;;;;;;;;;;4996150;28;20064;-77
2022/09/19 10:36:34;;;;;;;4.18;1.90;;;;;;;;;;4997814;28;20057;-77
2022/09/19 10:39:09;;;;;;;2.65;2.03;;;;;;;;;;5011815;28;20042;-78
2022/09/19 10:41:36;;;;;;;1.20;1.10;;;;;;;;;;5016304;28;20026;-78
2022/09/19 10:44:24;;;;;;;1.90;1.42;;;;;;;;;;5017063;28;20594;-78
2022/09/19 10:47:03;;;;;;;2.75;1.65;;;;;;;;;;5016277;28;20041;-78
2022/09/19 10:50:00;;;;;;;1.10;1.00;;;;;;;;;;5017392;28;20673;-78
2022/09/19 10:52:30;;;;;;;1.60;1.10;;;;;;;;;;4999446;28;20651;-77
2022/09/19 10:54:59;;;;;;;1.90;1.30;;;;;;;;;;5021786;28;20037;-79
2022/09/19 10:57:40;;;;;;;0.80;0.80;;;;;;;;;;5019611;28;20029;-77
2022/09/19 11:00:23;;;;;;;2.38;1.00;;;;;;;;;;5019730;28;20037;-76
2022/09/19 11:03:15;;;;;;;3.92;1.95;;;;;;;;;;5020372;28;20045;-78
2022/09/19 11:05:41;;;;;;;1.35;0.65;;;;;;;;;;5023499;28;20092;-76
2022/09/19 11:08:23;;;;;;;2.13;0.73;;;;;;;;;;5020179;28;20096;-76
2022/09/19 11:10:49;;;;;;;1.50;1.35;;;;;;;;;;5016914;28;20062;-78
2022/09/19 11:13:23;;;;;;;1.52;0.95;;;;;;;;;;5010393;28;20038;-75
2022/09/19 11:15:58;;;;;;;1.40;1.20;;;;;;;;;;5003320;28;20041;-78
2022/09/19 11:18:44;;;;;;;2.53;1.48;;;;;;;;;;5023582;28;20548;-77
2022/09/19 11:21:41;;;;;;;2.53;1.55;;;;;;;;;;4998100;28;20045;-77
2022/09/19 11:24:46;;;;;;;1.80;1.70;;;;;;;;;;5018857;28;20033;-78
2022/09/19 11:27:33;;;;;;;1.42;1.00;;;;;;;;;;5004014;28;20033;-78
2022/09/19 11:30:16;;;;;;;1.10;1.00;;;;;;;;;;5008042;28;20064;-78
2022/09/19 11:33:06;;;;;;;2.03;1.30;;;;;;;;;;5020434;28;20033;-77
2022/09/19 11:36:18;;;;;;;1.33;1.08;;;;;;;;;;5018343;28;20049;-77
2022/09/19 11:39:15;;;;;;;1.70;0.95;;;;;;;;;;4983224;28;20050;-77
2022/09/19 11:42:15;;;;;;;1.88;1.25;;;;;;;;;;5017897;28;20107;-78
2022/09/19 11:45:05;;;;;;;1.08;0.98;;;;;;;;;;5018875;28;20049;-77
2022/09/19 11:47:50;;;;;;;1.38;1.27;;;;;;;;;;5008957;28;20049;-79
2022/09/19 11:50:41;;;;;;;1.88;1.67;;;;;;;;;;5020850;28;20115;-77
2022/09/19 11:53:07;;;;;;;3.67;1.55;;;;;;;;;;5024591;28;20022;-76
2022/09/19 11:56:05;;;;;;;2.25;1.50;;;;;;;;;;5028403;28;20033;-76
2022/09/19 11:58:54;;;;;;;3.65;1.98;;;;;;;;;;5026967;28;20049;-79
2022/09/19 12:01:28;;;;;;;1.73;1.63;;;;;;;;;;5010548;28;20053;-77
2022/09/19 12:04:16;;;;;;;2.40;1.88;;;;;;;;;;5020440;28;20033;-78
2022/09/19 12:07:00;;;;;;;4.88;2.10;;;;;;;;;;5017782;28;20033;-76
2022/09/19 12:09:28;;;;;;;1.83;1.70;;;;;;;;;;5014305;28;20219;-77
2022/09/19 12:12:23;;;;;;;3.40;2.70;;;;;;;;;;5015471;28;20026;-77
2022/09/19 12:14:55;;;;;;;2.38;2.17;;;;;;;;;;4988712;28;20125;-78
2022/09/19 12:17:28;;;;;;;3.25;2.83;;;;;;;;;;4997698;28;20100;-77
2022/09/19 12:20:19;;;;;;;2.47;1.98;;;;;;;;;;4998780;28;20045;-78
2022/09/19 12:24:52;;;;;;;2.45;2.25;;;;;;;;;;4999544;28;20037;-79
2022/09/19 12:25:46;;;;;;;4.20;2.95;;;;;;;;;;4999670;28;20200;-77
2022/09/19 12:28:15;;;;;;;5.68;2.10;;;;;;;;;;4998355;28;20046;-78
2022/09/19 12:30:49;;;;;;;3.53;2.15;;;;;;;;;;5005146;28;20137;-77
2022/09/19 12:33:33;;;;;;;2.30;2.10;;;;;;;;;;5014948;28;20499;-76
2022/09/19 12:36:11;;;;;;;2.25;2.05;;;;;;;;;;5008118;28;20061;-76
2022/09/19 12:38:56;;;;;;;2.47;2.28;;;;;;;;;;4997639;28;20045;-76
2022/09/19 12:41:47;;;;;;;3.15;2.33;;;;;;;;;;5004107;28;20364;-76
2022/09/19 12:44:23;;;;;;;2.85;2.08;;;;;;;;;;5014094;28;20053;-77
2022/09/19 12:47:04;;;;;;;2.08;1.88;;;;;;;;;;4998237;28;20129;-76
2022/09/19 12:49:39;;;;;;;6.13;4.17;;;;;;;;;;4996410;28;20033;-75
2022/09/19 12:52:33;;;;;;;2.33;2.20;;;;;;;;;;5013695;28;20034;-78
2022/09/19 12:55:33;;;;;;;1.95;1.85;;;;;;;;;;4989190;28;20062;-77
2022/09/19 12:58:10;;;;;;;4.63;2.60;;;;;;;;;;4964742;28;20122;-76
2022/09/19 13:00:45;;;;;;;3.88;2.22;;;;;;;;;;4966804;28;20037;-76
2022/09/19 13:03:44;;;;;;;2.25;2.05;;;;;;;;;;4987225;28;20087;-76
2022/09/19 13:06:20;;;;;;;2.55;2.35;;;;;;;;;;4993434;28;20136;-79
2022/09/19 13:09:05;;;;;;;2.92;1.90;;;;;;;;;;4989345;28;20140;-77
2022/09/19 13:11:45;;;;;;;1.90;1.80;;;;;;;;;;4987109;28;20034;-76
2022/09/19 13:14:17;;;;;;;2.03;1.92;;;;;;;;;;4981719;28;20129;-78
2022/09/19 13:25:20;;;;;;;2.53;2.03;;;;;;;;;;4991568;28;20192;-77
2022/09/19 13:28:21;;;;;;;3.53;2.63;;;;;;;;;;4995632;28;20279;-76
2022/09/19 13:31:05;;;;;;;2.85;1.30;;;;;;;;;;5010252;28;20683;-76
2022/09/19 13:34:27;;;;;;;0.70;0.70;;;;;;;;;;4996332;28;20137;-80
2022/09/19 13:36:53;;;;;;;3.17;1.17;;;;;;;;;;4917068;29;20120;-76
2022/09/19 13:39:52;;;;;;;4.95;0.70;;;;;;;;;;4984030;28;20177;-76
2022/09/19 13:42:41;;;;;;;0.43;0.30;;;;;;;;;;4994638;28;20502;-77
2022/09/19 13:45:47;;;;;;;3.13;0.63;;;;;;;;;;4953138;28;20765;-79
2022/09/19 13:48:37;;;;;;;1.65;0.50;;;;;;;;;;4979073;28;20026;-75
2022/09/19 13:51:42;;;;;;;0.90;0.40;;;;;;;;;;4975007;28;20041;-78
2022/09/19 13:54:23;;;;;;;1.48;0.60;;;;;;;;;;4977763;28;20036;-79
2022/09/19 13:57:01;;;;;;;1.08;0.50;;;;;;;;;;4993990;28;20414;-77
2022/09/19 13:59:51;;;;;;;1.10;0.60;;;;;;;;;;4990442;28;20076;-77
2022/09/19 14:02:38;;;;;;;1.35;0.60;;;;;;;;;;4979473;28;20034;-77
2022/09/19 14:05:18;;;;;;;1.80;0.63;;;;;;;;;;4976181;28;20034;-79
2022/09/19 14:07:53;;;;;;;1.58;0.40;;;;;;;;;;4992920;28;20125;-75
2022/09/19 14:10:24;;;;;;;0.85;0.55;;;;;;;;;;4972699;28;20034;-80
2022/09/19 14:13:18;;;;;;;2.63;0.52;;;;;;;;;;4995732;28;20554;-78
2022/09/19 14:16:09;;;;;;;3.55;1.77;;;;;;;;;;4986304;28;20038;-79
2022/09/19 14:18:48;;;;;;;0.73;0.35;;;;;;;;;;4991214;28;20368;-77
2022/09/19 14:21:26;;;;;;;0.90;0.70;;;;;;;;;;4984339;28;20145;-75
2022/09/19 14:24:24;;;;;;;2.67;0.60;;;;;;;;;;4994231;28;20707;-76
2022/09/19 14:27:07;;;;;;;2.22;1.00;;;;;;;;;;4947852;28;20042;-76
2022/09/19 14:29:55;;;;;;;1.42;0.77;;;;;;;;;;4977861;28;20042;-78
2022/09/19 14:32:48;;;;;;;1.30;0.80;;;;;;;;;;4997606;28;20452;-76
2022/09/19 14:35:20;;;;;;;1.17;0.73;;;;;;;;;;4957300;28;20461;-75
2022/09/19 14:37:46;;;;;;;;;;;;;;;;;;5001158;28;20037;-75
2022/09/19 14:40:40;;;;;;;2.15;0.40;;;;;;;;;;5014566;28;19921;-78
2022/09/19 14:43:44;;;;;;;1.15;0.70;;;;;;;;;;5022014;28;20412;-77
2022/09/19 14:46:41;;;;;;;1.90;0.82;;;;;;;;;;5008410;28;20033;-78
2022/09/19 14:49:25;;;;;;;0.98;0.50;;;;;;;;;;5011763;28;20545;-77
2022/09/19 14:52:05;;;;;;;1.58;0.60;;;;;;;;;;5008725;28;20669;-78
2022/09/19 14:54:44;;;;;;;1.40;1.00;;;;;;;;;;5023272;28;20037;-77
2022/09/19 14:57:16;;;;;;;1.60;0.80;;;;;;;;;;5007977;28;20022;-78
2022/09/19 14:59:44;;;;;;;1.70;0.90;;;;;;;;;;5018799;28;20026;-77
2022/09/19 15:02:27;;;;;;;2.97;1.33;;;;;;;;;;5024591;28;20561;-77
2022/09/19 15:05:04;;;;;;;1.05;0.70;;;;;;;;;;5021701;28;20037;-77
2022/09/19 15:07:32;;;;;;;1.33;0.60;;;;;;;;;;5013215;28;20033;-77
2022/09/19 15:09:59;;;;;;;0.45;0.40;;;;;;;;;;5023340;28;20036;-77
2022/09/19 15:12:35;;;;;;;0.65;0.65;;;;;;;;;;5008254;28;20037;-79
2022/09/19 15:15:02;;;;;;;1.17;0.80;;;;;;;;;;5008383;28;20029;-77
2022/09/19 15:17:35;;;;;;;2.05;1.27;;;;;;;;;;5004594;28;20034;-77
2022/09/19 15:20:11;;;;;;;2.30;0.80;;;;;;;;;;5025011;28;20350;-76
2022/09/19 15:22:41;;;;;;;2.97;1.40;;;;;;;;;;5022659;28;20036;-75
2022/09/19 15:25:29;;;;;;;1.17;0.85;;;;;;;;;;5009976;28;20587;-77
2022/09/19 15:27:59;;;;;;;1.20;0.80;;;;;;;;;;5020562;28;20069;-77
2022/09/19 15:30:27;;;;;;;1.25;0.90;;;;;;;;;;5020089;28;20034;-77
2022/09/19 15:32:58;;;;;;;2.97;1.13;;;;;;;;;;5008925;28;20113;-75
2022/09/19 15:35:28;;;;;;;1.75;1.25;;;;;;;;;;5006500;28;20038;-78
2022/09/19 15:38:01;;;;;;;2.45;1.10;;;;;;;;;;5004771;28;20037;-77
2022/09/19 15:40:29;;;;;;;2.53;1.10;;;;;;;;;;5009695;28;20250;-79
2022/09/19 15:42:57;;;;;;;2.45;0.98;;;;;;;;;;5005869;28;20026;-76
2022/09/19 15:45:29;;;;;;;3.67;1.95;;;;;;;;;;5008829;28;20065;-78
2022/09/19 15:48:17;;;;;;;2.50;1.20;;;;;;;;;;5022249;28;20045;-76
2022/09/19 15:50:56;;;;;;;2.33;1.70;;;;;;;;;;5003793;28;20426;-78
2022/09/19 15:53:36;;;;;;;3.72;1.92;;;;;;;;;;5006409;28;20025;-77
2022/09/19 15:56:10;;;;;;;1.23;1.08;;;;;;;;;;5007379;28;20127;-79